Time;durP1;ratioP1;P1;durP2;ratioP2;P2;SDS_P1;SDS_P2;PMS_P1;PMS_P2;Temp;Humidity;BMP_temperature;BMP_pressure;BME280_temperature;BME280_humidity;BME280_pressure;Samples;Min_cycle;Max_cycle;Signal;HPM_P1;HPM_P2
2022/11/13 00:01:23;;;;;;;6.28;4.20;;;;;;;8.56;74.05;96194.44;5066469;28;20610;-74
2022/11/13 00:03:49;;;;;;;8.07;4.40;;;;;;;8.54;74.07;96198.84;5031285;28;20554;-74
2022/11/13 00:06:15;;;;;;;5.32;3.80;;;;;;;8.58;74.32;96203.81;5065571;28;20113;-74
2022/11/13 00:08:40;;;;;;;5.63;3.90;;;;;;;8.64;74.21;96213.00;5066211;28;20036;-75
2022/11/13 00:11:11;;;;;;;5.95;4.18;;;;;;;8.58;74.50;96184.81;5048306;28;20036;-75
2022/11/13 00:13:36;;;;;;;6.03;4.30;;;;;;;8.64;74.13;96207.81;5063751;28;20051;-75
2022/11/13 00:16:04;;;;;;;6.18;4.38;;;;;;;8.66;73.86;96199.06;5045519;28;20091;-74
2022/11/13 00:18:30;;;;;;;5.82;4.25;;;;;;;8.63;73.81;96188.84;5065628;28;20426;-75
2022/11/13 00:20:56;;;;;;;6.80;4.30;;;;;;;8.72;73.98;96197.91;5049672;28;20042;-74
2022/11/13 00:23:22;;;;;;;6.05;3.90;;;;;;;8.70;73.54;96194.53;5047401;28;20552;-74
2022/11/13 00:25:47;;;;;;;5.63;3.90;;;;;;;8.62;73.46;96181.16;5066033;28;20056;-75
2022/11/13 00:28:13;;;;;;;5.18;3.75;;;;;;;8.74;73.30;96193.44;5064679;28;20032;-75
2022/11/13 00:30:38;;;;;;;6.35;4.07;;;;;;;8.77;73.17;96193.28;5045859;28;20270;-74
2022/11/13 00:33:04;;;;;;;6.13;4.40;;;;;;;8.61;73.07;96190.69;5065107;28;20127;-74
2022/11/13 00:35:31;;;;;;;6.68;4.60;;;;;;;8.52;73.27;96178.19;5065908;28;20399;-75
2022/11/13 00:37:56;;;;;;;5.85;4.38;;;;;;;8.49;72.96;96189.56;5031569;28;21181;-75
2022/11/13 00:40:22;;;;;;;5.97;4.30;;;;;;;8.52;73.73;96185.16;5067212;28;20025;-75
2022/11/13 00:42:47;;;;;;;5.93;4.30;;;;;;;8.47;73.51;96185.41;5065727;28;20024;-75
2022/11/13 00:45:13;;;;;;;6.05;4.00;;;;;;;8.50;73.25;96167.94;5062803;28;20036;-75
2022/11/13 00:47:38;;;;;;;5.68;4.47;;;;;;;8.56;73.47;96176.31;5049020;28;20025;-76
2022/11/13 00:50:04;;;;;;;5.93;4.50;;;;;;;8.65;72.79;96165.44;5065749;28;20059;-75
2022/11/13 00:52:29;;;;;;;5.63;4.35;;;;;;;8.61;72.90;96164.78;5047180;28;20421;-74
2022/11/13 00:54:55;;;;;;;6.97;4.72;;;;;;;8.39;73.03;96146.97;5062982;28;20029;-75
2022/11/13 00:57:20;;;;;;;6.32;4.40;;;;;;;8.61;73.42;96174.28;5032178;28;20115;-75
2022/11/13 00:59:46;;;;;;;6.13;4.40;;;;;;;8.69;72.86;96170.41;5065064;28;20032;-75
2022/11/13 01:02:14;;;;;;;6.50;4.60;;;;;;;8.63;72.84;96141.38;5064902;28;20469;-75
2022/11/13 01:04:40;;;;;;;7.15;4.63;;;;;;;8.91;72.61;96175.25;5063763;28;20024;-75
2022/11/13 01:07:05;;;;;;;7.72;4.45;;;;;;;8.91;72.45;96183.03;5066996;28;20468;-75
2022/11/13 01:09:31;;;;;;;6.60;4.40;;;;;;;8.78;72.32;96176.81;5066620;28;20029;-75
2022/11/13 01:11:56;;;;;;;6.32;4.60;;;;;;;8.91;72.28;96182.16;5048210;28;20032;-75
2022/11/13 01:14:22;;;;;;;5.63;4.40;;;;;;;8.89;72.33;96171.91;5062070;28;20119;-75
2022/11/13 01:16:47;;;;;;;6.05;4.18;;;;;;;8.91;72.27;96172.66;5066436;28;20062;-75
2022/11/13 01:19:13;;;;;;;5.45;4.22;;;;;;;8.87;72.24;96181.50;5065276;28;20032;-75
2022/11/13 01:21:38;;;;;;;5.03;3.78;;;;;;;9.00;71.84;96167.88;5064075;28;20037;-75
2022/11/13 01:24:04;;;;;;;5.68;4.15;;;;;;;8.93;72.41;96160.44;5062368;28;20025;-75
2022/11/13 01:26:29;;;;;;;6.22;4.03;;;;;;;9.07;71.86;96162.25;5065517;28;20100;-74
2022/11/13 01:28:55;;;;;;;7.88;5.53;;;;;;;8.88;72.78;96164.19;5046659;28;20229;-75
2022/11/13 01:31:23;;;;;;;9.18;6.90;;;;;;;8.82;72.44;96155.00;5065656;28;20313;-75
2022/11/13 01:33:48;;;;;;;9.48;6.55;;;;;;;8.78;72.94;96166.47;5063099;28;20099;-75
2022/11/13 01:36:18;;;;;;;9.85;7.22;;;;;;;8.78;72.87;96165.63;5066085;28;20513;-76
2022/11/13 01:38:44;;;;;;;10.03;6.93;;;;;;;8.92;72.48;96163.13;5046451;28;20113;-74
2022/11/13 01:41:17;;;;;;;9.18;6.82;;;;;;;8.88;72.49;96152.06;5064393;28;20119;-72
2022/11/13 01:43:42;;;;;;;11.15;8.27;;;;;;;8.85;72.59;96152.25;5064049;28;20039;-72
2022/11/13 01:46:11;;;;;;;9.07;6.43;;;;;;;8.85;72.32;96152.25;5063519;28;20426;-71
2022/11/13 01:48:56;;;;;;;8.52;6.20;;;;;;;8.79;72.74;96144.81;5064192;28;20036;-71
2022/11/13 01:51:29;;;;;;;8.32;5.82;;;;;;;8.80;72.91;96143.88;5063787;28;20422;-71
2022/11/13 01:53:54;;;;;;;7.15;5.70;;;;;;;8.88;73.05;96146.88;5048400;28;20048;-71
2022/11/13 01:56:20;;;;;;;9.00;6.05;;;;;;;8.93;72.25;96144.06;5065180;28;20111;-71
2022/11/13 01:58:50;;;;;;;9.40;6.10;;;;;;;8.92;72.62;96143.22;5048081;28;20033;-71
2022/11/13 02:01:15;;;;;;;9.63;6.10;;;;;;;8.84;73.00;96147.16;5055783;28;20402;-71
2022/11/13 02:03:41;;;;;;;6.90;4.95;;;;;;;8.85;73.54;96141.88;5048233;28;20016;-71
2022/11/13 02:06:06;;;;;;;6.95;5.13;;;;;;;8.91;73.31;96146.75;5051669;28;20400;-71
2022/11/13 02:08:32;;;;;;;7.78;5.28;;;;;;;8.98;73.63;96152.41;5066194;28;20032;-71
2022/11/13 02:10:57;;;;;;;7.03;4.57;;;;;;;8.92;73.96;96156.19;5052752;28;20032;-71
2022/11/13 02:13:23;;;;;;;8.85;5.07;;;;;;;8.87;73.04;96153.00;5067107;28;20484;-71
2022/11/13 02:15:48;;;;;;;7.07;5.03;;;;;;;8.88;73.25;96152.06;5066998;28;20118;-71
2022/11/13 02:18:14;;;;;;;6.90;4.97;;;;;;;8.87;72.82;96147.81;5051351;28;20564;-71
2022/11/13 02:20:44;;;;;;;7.50;4.72;;;;;;;8.82;73.44;96155.00;5051684;28;20040;-71
2022/11/13 02:24:00;;;;;;;7.30;5.32;;;;;;;8.83;73.18;96161.88;5065777;28;20517;-71
2022/11/13 02:26:26;;;;;;;8.20;5.03;;;;;;;8.79;73.42;96133.63;5049906;28;20097;-81
2022/11/13 02:28:51;;;;;;;6.47;4.88;;;;;;;8.95;73.29;96147.41;5052054;28;20040;-71
2022/11/13 02:31:17;;;;;;;7.82;5.38;;;;;;;8.87;73.58;96134.03;5045983;28;20077;-71
2022/11/13 02:33:42;;;;;;;6.22;4.85;;;;;;;9.04;74.15;96156.41;5064801;28;20090;-71
2022/11/13 02:36:08;;;;;;;7.53;5.30;;;;;;;9.07;73.43;96135.50;5065423;28;20060;-70
2022/11/13 02:38:34;;;;;;;13.05;9.90;;;;;;;9.01;73.54;96144.47;5048287;28;20028;-71
2022/11/13 02:40:59;;;;;;;6.88;5.50;;;;;;;8.92;73.08;96132.03;5049116;28;20048;-71
2022/11/13 02:43:25;;;;;;;7.80;5.97;;;;;;;8.99;72.46;96127.31;5061675;28;20036;-71
2022/11/13 02:45:50;;;;;;;8.57;5.68;;;;;;;8.99;72.88;96137.69;5064494;28;20041;-68
2022/11/13 02:48:16;;;;;;;7.28;5.70;;;;;;;9.08;72.19;96144.94;5045320;28;20219;-69
2022/11/13 02:50:41;;;;;;;9.57;6.68;;;;;;;9.07;72.13;96140.69;5048509;28;20037;-69
2022/11/13 02:53:07;;;;;;;10.02;6.85;;;;;;;9.12;72.01;96143.88;5058896;28;20502;-70
2022/11/13 02:55:32;;;;;;;8.65;6.15;;;;;;;9.06;71.71;96141.63;5027547;28;20075;-70
2022/11/13 02:57:58;;;;;;;8.68;6.95;;;;;;;9.14;71.60;96147.22;5071827;28;20711;-70
2022/11/13 03:00:23;;;;;;;9.27;6.88;;;;;;;9.09;71.70;96151.81;5062848;28;20399;-70
2022/11/13 03:02:49;;;;;;;8.70;6.10;;;;;;;8.94;71.88;96146.56;5066055;28;20093;-70
2022/11/13 03:05:14;;;;;;;7.57;6.22;;;;;;;9.00;71.85;96147.13;5061995;28;20048;-70
2022/11/13 03:07:40;;;;;;;9.25;6.75;;;;;;;9.12;71.92;96156.84;5064381;28;20108;-70
2022/11/13 03:10:06;;;;;;;10.90;6.95;;;;;;;9.14;72.04;96157.59;5062772;28;20043;-70
2022/11/13 03:12:32;;;;;;;8.45;6.40;;;;;;;9.08;72.76;96156.16;5063433;28;20073;-70
2022/11/13 03:14:58;;;;;;;7.57;6.03;;;;;;;8.98;71.99;96157.59;5062840;28;20021;-70
2022/11/13 03:17:23;;;;;;;8.85;6.85;;;;;;;8.87;72.18;96139.22;5064082;28;20024;-70
2022/11/13 03:19:49;;;;;;;10.93;6.88;;;;;;;8.94;71.90;96153.47;5059615;28;20506;-70
2022/11/13 03:22:14;;;;;;;9.32;6.90;;;;;;;8.94;71.94;96153.47;5064022;28;20036;-70
2022/11/13 03:24:39;;;;;;;9.05;7.13;;;;;;;9.02;71.76;96160.84;5041244;28;20040;-70
2022/11/13 03:27:05;;;;;;;9.23;6.70;;;;;;;9.14;71.30;96160.19;5063150;28;20039;-70
2022/11/13 03:29:30;;;;;;;10.65;7.15;;;;;;;9.06;71.40;96158.00;5061696;28;20499;-70
2022/11/13 03:31:56;;;;;;;9.43;7.38;;;;;;;9.08;71.75;96165.69;5066045;28;20174;-70
2022/11/13 03:34:21;;;;;;;9.95;7.15;;;;;;;9.03;71.60;96167.72;5060829;28;20410;-70
2022/11/13 03:36:47;;;;;;;7.97;6.25;;;;;;;8.94;72.03;96159.53;5077956;28;20032;-70
2022/11/13 03:39:12;;;;;;;9.95;7.18;;;;;;;9.02;71.96;96166.03;5063219;28;20036;-70
2022/11/13 03:41:38;;;;;;;10.98;7.20;;;;;;;8.99;71.84;96174.81;5061962;28;20028;-70
2022/11/13 03:44:03;;;;;;;9.38;7.30;;;;;;;8.95;72.01;96163.78;5060997;28;20032;-70
2022/11/13 03:46:29;;;;;;;8.23;6.55;;;;;;;9.01;72.04;96167.78;5063287;28;20066;-70
2022/11/13 03:48:54;;;;;;;7.55;6.13;;;;;;;8.92;71.98;96171.72;5047077;28;20505;-70
2022/11/13 03:51:19;;;;;;;8.75;6.72;;;;;;;8.98;71.90;96169.72;5060454;28;20029;-70
2022/11/13 03:53:45;;;;;;;10.07;7.63;;;;;;;9.13;71.55;96167.09;5063886;28;20040;-70
2022/11/13 03:56:10;;;;;;;9.52;7.32;;;;;;;9.16;71.73;96168.69;5062917;28;20025;-70
2022/11/13 03:58:36;;;;;;;9.45;7.05;;;;;;;9.15;71.46;96164.44;5061980;28;20043;-70
2022/11/13 04:01:01;;;;;;;8.70;6.35;;;;;;;9.14;71.40;96173.16;5063294;28;20020;-70
2022/11/13 04:03:26;;;;;;;9.27;6.43;;;;;;;9.17;71.39;96157.41;5062645;28;20024;-70
2022/11/13 04:05:52;;;;;;;8.40;6.55;;;;;;;9.16;71.69;96161.78;5060185;28;20035;-70
2022/11/13 04:08:17;;;;;;;9.38;7.40;;;;;;;9.21;71.61;96169.28;5065812;28;20040;-70
2022/11/13 04:10:43;;;;;;;9.18;6.70;;;;;;;9.21;71.22;96161.50;5047146;28;20056;-70
2022/11/13 04:13:09;;;;;;;10.48;7.88;;;;;;;9.33;71.27;96168.59;5064755;28;20063;-70
2022/11/13 04:15:34;;;;;;;12.52;9.20;;;;;;;8.95;71.67;96150.81;5062746;28;20115;-70
2022/11/13 04:18:00;;;;;;;10.10;7.55;;;;;;;9.08;71.73;96163.94;5066438;28;20041;-70
2022/11/13 04:20:26;;;;;;;9.02;6.90;;;;;;;8.87;71.97;96154.75;5032166;28;20464;-70
2022/11/13 04:22:52;;;;;;;9.85;7.55;;;;;;;9.02;71.92;96163.44;5064901;28;20032;-69
2022/11/13 04:25:18;;;;;;;10.30;7.50;;;;;;;9.15;71.38;96164.44;5063514;28;20028;-69
2022/11/13 04:27:43;;;;;;;10.77;7.80;;;;;;;8.82;72.61;96167.13;5048114;28;20024;-70
2022/11/13 04:30:09;;;;;;;11.82;8.15;;;;;;;8.79;72.33;96157.75;5066894;28;20525;-71
2022/11/13 04:32:35;;;;;;;13.85;10.38;;;;;;;8.90;72.40;96167.53;5066348;28;20498;-70
2022/11/13 04:35:00;;;;;;;14.00;9.18;;;;;;;8.83;72.28;96168.78;5062895;28;20032;-70
2022/11/13 04:37:26;;;;;;;12.38;8.90;;;;;;;8.89;71.78;96163.28;5047883;28;20025;-71
2022/11/13 04:39:51;;;;;;;13.23;9.10;;;;;;;8.84;71.75;96160.94;5066466;28;20029;-71
2022/11/13 04:45:00;;;;;;;16.42;9.90;;;;;;;8.81;71.64;96152.50;5063119;28;20082;-71
2022/11/13 04:47:26;;;;;;;15.73;10.68;;;;;;;8.92;71.65;96161.34;5066636;28;20024;-71
2022/11/13 04:49:51;;;;;;;17.33;11.10;;;;;;;8.72;71.42;96159.88;5065038;28;20033;-71
2022/11/13 04:52:17;;;;;;;15.25;10.52;;;;;;;8.66;71.65;96149.84;5043180;28;20036;-71
2022/11/13 04:54:42;;;;;;;15.20;10.48;;;;;;;8.73;71.93;96163.28;5062457;28;20036;-71
2022/11/13 04:57:08;;;;;;;19.73;11.73;;;;;;;8.72;72.36;96161.63;5049433;28;20032;-71
2022/11/13 04:59:33;;;;;;;15.57;11.32;;;;;;;8.67;72.08;96161.84;5065154;28;20036;-71
2022/11/13 05:01:58;;;;;;;14.77;10.07;;;;;;;8.81;71.44;96158.53;5067071;28;20509;-71
2022/11/13 05:04:24;;;;;;;19.08;12.85;;;;;;;8.68;71.80;96165.28;5029057;28;20051;-71
2022/11/13 05:06:49;;;;;;;16.42;11.30;;;;;;;8.67;72.08;96156.69;5063864;28;20078;-71
2022/11/13 05:09:15;;;;;;;17.00;11.70;;;;;;;8.56;72.36;96151.25;5066039;28;20522;-71
2022/11/13 05:11:40;;;;;;;19.48;12.43;;;;;;;8.72;71.83;96165.03;5064416;28;20511;-71
2022/11/13 05:14:06;;;;;;;16.58;11.32;;;;;;;8.79;71.65;96155.16;5062097;28;20055;-71
2022/11/13 05:16:33;;;;;;;15.93;11.38;;;;;;;8.86;71.50;96161.69;5065249;28;20289;-71
2022/11/13 05:18:59;;;;;;;23.63;15.52;;;;;;;8.87;71.65;96157.34;5051050;28;20059;-71
2022/11/13 05:21:24;;;;;;;16.55;11.07;;;;;;;8.97;71.60;96173.22;5051542;28;20486;-71
2022/11/13 05:23:50;;;;;;;17.45;11.32;;;;;;;8.78;71.94;96170.81;5046139;28;20025;-71
2022/11/13 05:26:15;;;;;;;17.73;11.40;;;;;;;8.85;71.97;96164.38;5068475;28;20078;-71
2022/11/13 05:28:41;;;;;;;16.23;10.80;;;;;;;8.84;71.96;96163.53;5065863;28;20035;-71
2022/11/13 05:31:07;;;;;;;17.60;11.77;;;;;;;8.86;71.21;96158.25;5067958;28;20024;-71
2022/11/13 05:33:33;;;;;;;18.55;11.90;;;;;;;8.97;71.19;96162.84;5066719;28;20063;-71
2022/11/13 05:36:03;;;;;;;19.55;12.77;;;;;;;8.78;71.38;96158.69;5050779;28;20123;-71
2022/11/13 05:38:29;;;;;;;18.98;12.02;;;;;;;8.80;71.31;96168.94;5067177;28;20051;-71
2022/11/13 05:41:00;;;;;;;18.50;11.57;;;;;;;8.72;70.86;96167.63;5051353;28;20486;-71
2022/11/13 05:43:25;;;;;;;18.63;12.35;;;;;;;8.61;71.48;96179.47;5064972;28;20494;-71
2022/11/13 05:45:51;;;;;;;15.52;10.60;;;;;;;8.53;71.38;96154.00;5066941;28;20047;-71
2022/11/13 05:48:16;;;;;;;18.98;11.90;;;;;;;8.63;71.78;96175.03;5068419;28;20033;-71
2022/11/13 05:50:42;;;;;;;19.85;12.82;;;;;;;8.87;71.12;96176.31;5068300;28;20032;-71
2022/11/13 05:53:07;;;;;;;16.80;10.25;;;;;;;8.85;70.73;96185.91;5065269;28;20115;-71
2022/11/13 05:55:32;;;;;;;17.80;11.48;;;;;;;8.65;70.78;96176.63;5068577;28;20031;-71
2022/11/13 05:57:58;;;;;;;15.50;10.82;;;;;;;8.62;70.94;96196.69;5050830;28;20052;-71
2022/11/13 06:00:23;;;;;;;16.67;11.45;;;;;;;8.69;71.32;96187.66;5064096;28;20078;-71
2022/11/13 06:02:49;;;;;;;16.02;10.60;;;;;;;8.53;71.32;96189.44;5068797;28;20241;-71
2022/11/13 06:05:14;;;;;;;20.98;13.23;;;;;;;8.62;71.19;96184.56;5063605;28;20040;-71
2022/11/13 06:07:40;;;;;;;15.13;10.73;;;;;;;8.63;71.48;96203.53;5066819;28;20533;-71
2022/11/13 06:10:05;;;;;;;19.33;11.48;;;;;;;8.61;71.10;96195.88;5068659;28;20573;-71
2022/11/13 06:12:31;;;;;;;18.15;12.70;;;;;;;8.82;70.91;96199.06;5067233;28;20459;-71
2022/11/13 06:14:56;;;;;;;15.88;11.32;;;;;;;8.76;70.42;96208.91;5061907;28;20046;-71
2022/11/13 06:17:22;;;;;;;15.38;10.55;;;;;;;8.75;70.60;96197.72;5051223;28;20029;-71
2022/11/13 06:19:47;;;;;;;13.95;10.18;;;;;;;8.77;70.59;96195.03;5067425;28;20032;-71
2022/11/13 06:22:13;;;;;;;14.35;10.27;;;;;;;8.86;69.87;96200.56;5066402;28;20036;-71
2022/11/13 06:24:38;;;;;;;15.63;11.00;;;;;;;8.82;70.00;96193.88;5065082;28;20033;-71
2022/11/13 06:27:03;;;;;;;15.63;10.43;;;;;;;8.72;70.43;96183.19;5068758;28;20027;-71
2022/11/13 06:29:29;;;;;;;14.82;10.73;;;;;;;8.89;69.78;96195.22;5064992;28;20507;-71
2022/11/13 06:31:54;;;;;;;14.73;10.45;;;;;;;8.76;70.16;96199.38;5051052;28;20661;-71
2022/11/13 06:34:20;;;;;;;15.63;10.63;;;;;;;8.92;70.00;96197.66;5066397;28;20416;-71
2022/11/13 06:36:45;;;;;;;15.57;10.93;;;;;;;9.05;69.63;96202.16;5050301;28;20125;-71
2022/11/13 06:39:11;;;;;;;16.67;10.90;;;;;;;8.97;69.61;96202.59;5067693;28;20052;-71
2022/11/13 06:41:37;;;;;;;14.05;10.50;;;;;;;9.04;69.54;96203.06;5065925;28;20482;-71
2022/11/13 06:44:02;;;;;;;17.27;10.77;;;;;;;8.86;69.61;96189.34;5031301;28;20464;-71
2022/11/13 06:46:28;;;;;;;17.85;11.68;;;;;;;8.87;70.11;96197.06;5050654;28;20024;-70
2022/11/13 06:48:54;;;;;;;13.15;9.52;;;;;;;8.79;69.77;96204.41;5049150;28;20029;-71
2022/11/13 06:51:21;;;;;;;16.98;10.73;;;;;;;9.02;69.69;96199.72;5050636;28;20031;-72
2022/11/13 06:53:46;;;;;;;16.60;10.45;;;;;;;8.94;69.56;96193.22;5063145;28;20211;-71
2022/11/13 06:56:12;;;;;;;14.43;10.15;;;;;;;8.95;69.73;96179.34;5064694;28;20556;-71
2022/11/13 06:58:38;;;;;;;14.10;9.77;;;;;;;9.08;69.53;96191.59;5049716;28;20035;-71
2022/11/13 07:01:05;;;;;;;15.38;10.70;;;;;;;9.01;69.36;96187.69;5066358;28;20028;-71
2022/11/13 07:03:31;;;;;;;18.65;11.35;;;;;;;9.11;69.31;96186.25;5064571;28;20460;-71
2022/11/13 07:05:56;;;;;;;16.65;10.85;;;;;;;9.13;69.12;96182.66;5064263;28;20532;-71
2022/11/13 07:08:21;;;;;;;16.80;10.70;;;;;;;8.95;68.95;96170.72;5066317;28;20556;-71
2022/11/13 07:10:54;;;;;;;16.98;10.75;;;;;;;8.94;69.43;96180.25;5067587;28;20029;-71
2022/11/13 07:13:20;;;;;;;15.95;10.85;;;;;;;8.97;69.67;96178.41;5049084;28;20036;-71
2022/11/13 07:15:45;;;;;;;16.15;10.77;;;;;;;8.95;69.47;96183.69;5049531;28;20071;-71
2022/11/13 07:18:11;;;;;;;16.73;11.23;;;;;;;9.10;69.21;96179.41;5049289;28;20441;-71
2022/11/13 07:20:36;;;;;;;17.75;12.50;;;;;;;9.08;69.56;96192.47;5049192;28;20032;-71
2022/11/13 07:23:02;;;;;;;17.67;10.13;;;;;;;9.15;69.25;96192.94;5045606;28;20037;-71
2022/11/13 07:25:28;;;;;;;31.42;21.95;;;;;;;9.23;69.19;96172.63;5048205;28;20083;-71
2022/11/13 07:27:53;;;;;;;19.60;13.45;;;;;;;9.40;68.71;96192.41;5062123;28;20033;-71
2022/11/13 07:30:19;;;;;;;14.90;10.40;;;;;;;9.22;68.80;96194.28;5061411;28;20414;-71
2022/11/13 07:32:44;;;;;;;16.75;12.20;;;;;;;9.44;68.84;96195.66;5048885;28;20060;-71
2022/11/13 07:35:10;;;;;;;16.48;11.30;;;;;;;9.38;68.33;96195.09;5063172;28;20520;-71
2022/11/13 07:37:35;;;;;;;16.95;12.60;;;;;;;9.43;68.45;96194.84;5049180;28;20071;-71
2022/11/13 07:40:01;;;;;;;17.33;11.40;;;;;;;9.34;68.36;96188.41;5065597;28;20043;-71
2022/11/13 07:42:26;;;;;;;17.75;11.40;;;;;;;9.36;68.43;96193.50;5049422;28;20039;-71
2022/11/13 07:44:52;;;;;;;18.00;11.80;;;;;;;9.50;68.09;96195.31;5046463;28;20025;-71
2022/11/13 07:47:18;;;;;;;18.75;11.50;;;;;;;9.39;68.02;96194.19;5065790;28;20410;-71
2022/11/13 07:49:43;;;;;;;19.98;13.52;;;;;;;9.52;68.06;96198.66;5065024;28;20036;-71
2022/11/13 07:52:08;;;;;;;17.25;12.20;;;;;;;9.52;67.56;96198.66;5062658;28;20410;-71
2022/11/13 07:54:34;;;;;;;18.40;12.68;;;;;;;9.45;67.27;96186.97;5038942;28;20028;-71
2022/11/13 07:56:59;;;;;;;18.63;13.02;;;;;;;9.47;67.39;96193.75;5041125;28;20036;-71
2022/11/13 07:59:25;;;;;;;16.40;12.15;;;;;;;9.36;67.24;96194.34;5042334;28;20144;-71
2022/11/13 08:01:50;;;;;;;17.58;11.45;;;;;;;9.30;67.34;96194.69;5052966;28;20039;-71
2022/11/13 08:04:16;;;;;;;17.45;12.15;;;;;;;9.34;67.34;96200.56;5055955;28;20047;-71
2022/11/13 08:06:41;;;;;;;15.63;11.27;;;;;;;9.38;67.14;96202.03;5063336;28;20465;-71
2022/11/13 08:09:07;;;;;;;15.32;11.02;;;;;;;9.37;67.02;96205.56;5056757;28;20422;-71
2022/11/13 08:11:32;;;;;;;19.73;12.30;;;;;;;9.38;67.20;96197.69;5058197;28;20034;-71
2022/11/13 08:13:57;;;;;;;16.00;12.00;;;;;;;9.48;67.16;96199.78;5058932;28;20040;-71
2022/11/13 08:16:23;;;;;;;16.35;11.65;;;;;;;9.58;66.88;96203.50;5065390;28;20294;-71
2022/11/13 08:18:50;;;;;;;19.30;13.45;;;;;;;9.59;67.13;96202.59;5040196;28;20461;-70
2022/11/13 08:21:15;;;;;;;20.40;14.40;;;;;;;9.65;66.84;96193.63;5065863;28;20115;-72
2022/11/13 08:23:41;;;;;;;17.40;13.05;;;;;;;9.66;66.32;96190.94;5043812;28;20029;-72
2022/11/13 08:26:07;;;;;;;18.55;13.30;;;;;;;9.64;66.38;96185.00;5044204;28;20469;-69
2022/11/13 08:28:32;;;;;;;18.00;12.82;;;;;;;9.64;66.34;96197.97;5045611;28;20055;-71
2022/11/13 08:30:58;;;;;;;18.00;12.98;;;;;;;9.76;65.84;96197.28;5045158;28;20036;-70
2022/11/13 08:33:23;;;;;;;17.67;13.15;;;;;;;9.61;66.05;96204.19;5056228;28;20053;-72
2022/11/13 08:35:56;;;;;;;17.23;13.25;;;;;;;9.74;65.71;96191.31;5058935;28;20125;-70
2022/11/13 08:38:21;;;;;;;19.35;13.93;;;;;;;9.78;66.11;96200.63;5046649;28;20034;-72
2022/11/13 08:40:47;;;;;;;18.52;13.60;;;;;;;9.63;66.06;96196.28;5044026;28;20418;-71
2022/11/13 08:43:12;;;;;;;16.80;13.43;;;;;;;9.53;66.14;96208.97;5043453;28;20044;-71
2022/11/13 08:45:38;;;;;;;19.73;13.90;;;;;;;9.52;66.30;96204.69;5063220;28;20043;-71
2022/11/13 08:48:04;;;;;;;21.08;14.95;;;;;;;9.39;66.63;96177.78;5062476;28;20038;-74
2022/11/13 08:50:30;;;;;;;18.98;14.02;;;;;;;9.58;66.81;96209.56;5065512;28;20021;-73
2022/11/13 08:52:56;;;;;;;20.85;14.20;;;;;;;9.61;66.44;96209.38;5063161;28;20037;-72
2022/11/13 08:55:21;;;;;;;19.65;14.63;;;;;;;9.64;66.57;96213.56;5062445;28;20553;-71
2022/11/13 08:57:47;;;;;;;26.35;20.00;;;;;;;9.56;66.42;96195.81;5040829;28;20105;-73
2022/11/13 09:00:13;;;;;;;18.35;13.70;;;;;;;9.50;66.57;96219.53;5037552;28;20044;-71
2022/11/13 09:02:38;;;;;;;17.30;13.30;;;;;;;9.42;66.91;96219.13;5051422;28;20111;-71
2022/11/13 09:05:04;;;;;;;20.10;14.05;;;;;;;9.52;66.47;96214.22;5053548;28;20016;-74
2022/11/13 09:07:29;;;;;;;18.58;14.35;;;;;;;9.49;66.62;96204.03;5056357;28;20044;-72
2022/11/13 09:09:55;;;;;;;19.25;14.50;;;;;;;9.36;67.19;96212.50;5036865;28;20033;-72
2022/11/13 09:12:20;;;;;;;19.88;14.63;;;;;;;9.36;66.93;96209.91;5054814;28;20029;-72
2022/11/13 09:14:46;;;;;;;18.92;14.00;;;;;;;9.29;67.30;96212.94;5060149;28;20035;-72
2022/11/13 09:17:11;;;;;;;19.48;14.20;;;;;;;9.43;66.92;96204.38;5068690;28;20487;-72
2022/11/13 09:19:37;;;;;;;20.85;14.50;;;;;;;9.26;67.48;96213.94;5042171;28;20086;-74
2022/11/13 09:22:02;;;;;;;20.42;13.70;;;;;;;9.28;67.15;96212.09;5069871;28;20051;-72
2022/11/13 09:24:27;;;;;;;20.25;14.13;;;;;;;9.34;67.58;96219.53;5068605;28;20082;-72
2022/11/13 09:26:53;;;;;;;19.50;14.65;;;;;;;9.36;67.43;96204.72;5062393;28;20033;-74
2022/11/13 09:29:19;;;;;;;20.20;15.40;;;;;;;9.40;67.31;96205.38;5063619;28;20033;-74
2022/11/13 09:31:45;;;;;;;18.05;14.60;;;;;;;9.19;67.02;96184.06;5060381;28;20067;-74
2022/11/13 09:34:10;;;;;;;18.48;14.50;;;;;;;9.24;67.63;96205.41;5059367;28;20040;-74
2022/11/13 09:36:36;;;;;;;19.52;14.65;;;;;;;9.19;67.43;96197.03;5047301;28;20505;-74
2022/11/13 09:39:02;;;;;;;20.52;15.07;;;;;;;9.12;67.68;96185.34;5050505;28;20048;-74
2022/11/13 09:41:30;;;;;;;19.02;14.88;;;;;;;9.36;67.35;96191.75;5050314;28;20487;-73
2022/11/13 09:44:01;;;;;;;18.63;14.15;;;;;;;9.45;67.14;96186.97;5050577;28;20051;-73
2022/11/13 09:46:46;;;;;;;19.92;15.00;;;;;;;9.34;67.24;96185.00;5050515;28;20052;-74
2022/11/13 09:49:15;;;;;;;19.90;14.32;;;;;;;9.39;66.92;96178.63;5066958;28;20090;-74
2022/11/13 09:51:40;;;;;;;23.65;15.65;;;;;;;9.45;66.90;96184.38;5050357;28;20132;-74
2022/11/13 09:54:13;;;;;;;20.30;14.25;;;;;;;9.27;67.41;96171.50;5050417;28;20530;-75
2022/11/13 09:56:41;;;;;;;19.73;14.73;;;;;;;9.48;66.77;96186.81;5050126;28;20112;-75
2022/11/13 09:59:15;;;;;;;20.98;15.45;;;;;;;9.48;66.70;96163.47;5050400;28;20040;-75
2022/11/13 10:02:11;;;;;;;30.15;15.32;;;;;;;9.44;66.95;96180.09;5050479;28;20119;-75
2022/11/13 10:04:56;;;;;;;18.38;13.95;;;;;;;9.58;66.83;96172.38;5051921;28;20041;-75
2022/11/13 10:07:25;;;;;;;18.25;14.05;;;;;;;9.62;66.50;96174.72;5069561;28;20040;-75
2022/11/13 10:10:09;;;;;;;21.90;16.13;;;;;;;9.73;66.39;96171.50;5056847;28;20038;-74
2022/11/13 10:12:34;;;;;;;20.55;15.63;;;;;;;9.63;66.33;96170.34;5062315;28;20064;-75
2022/11/13 10:15:01;;;;;;;20.08;15.27;;;;;;;9.84;66.21;96170.88;5042555;28;20040;-74
2022/11/13 10:17:39;;;;;;;23.95;17.30;;;;;;;9.79;65.41;96163.34;5044984;28;20083;-73
2022/11/13 10:20:14;;;;;;;19.15;14.43;;;;;;;9.65;66.03;96170.28;5038861;28;20111;-75
2022/11/13 10:22:57;;;;;;;18.48;13.98;;;;;;;9.64;66.09;96161.66;5029920;28;20177;-75
2022/11/13 10:25:28;;;;;;;18.30;14.02;;;;;;;9.76;66.13;96152.31;5043061;28;20482;-75
2022/11/13 10:27:58;;;;;;;26.30;18.25;;;;;;;9.87;66.50;96162.09;5063719;28;20040;-75
2022/11/13 10:30:24;;;;;;;20.80;15.40;;;;;;;10.04;65.72;96154.97;5053576;28;20513;-75
2022/11/13 10:32:50;;;;;;;21.90;16.73;;;;;;;10.19;65.17;96137.63;5045019;28;20041;-75
2022/11/13 10:35:22;;;;;;;20.92;14.65;;;;;;;10.17;64.04;96144.69;5043459;28;20032;-75
2022/11/13 10:38:16;;;;;;;22.65;15.80;;;;;;;10.37;64.30;96140.91;5058390;28;20506;-75
2022/11/13 10:40:41;;;;;;;20.15;14.68;;;;;;;10.12;63.80;96143.28;5062444;28;20024;-75
2022/11/13 10:43:22;;;;;;;27.77;18.98;;;;;;;10.32;63.91;96142.13;5047613;28;20096;-75
2022/11/13 10:45:58;;;;;;;22.83;16.42;;;;;;;10.57;63.53;96131.88;5033946;28;20492;-75
2022/11/13 10:48:31;;;;;;;24.17;16.45;;;;;;;10.53;63.13;96099.25;5048457;28;20138;-74
2022/11/13 10:51:03;;;;;;;21.73;15.13;;;;;;;10.83;62.87;96132.00;5067464;28;20463;-75
2022/11/13 10:53:39;;;;;;;20.58;14.85;;;;;;;11.03;61.01;96129.00;5046561;28;20036;-75
2022/11/13 10:56:30;;;;;;;25.80;18.13;;;;;;;11.14;60.63;96123.94;5048335;28;20036;-73
2022/11/13 10:59:13;;;;;;;22.83;15.68;;;;;;;11.09;60.97;96123.41;5066752;28;20064;-73
2022/11/13 11:01:39;;;;;;;18.55;13.80;;;;;;;11.15;60.45;96128.22;5050945;28;20021;-73
2022/11/13 11:04:05;;;;;;;17.70;13.48;;;;;;;11.03;59.89;96087.41;5064311;28;20567;-73
2022/11/13 11:06:36;;;;;;;17.30;12.45;;;;;;;11.18;59.80;96115.00;5050057;28;20407;-74
2022/11/13 11:09:24;;;;;;;18.63;14.77;;;;;;;11.18;58.62;96119.38;5067948;28;20509;-73
2022/11/13 11:12:19;;;;;;;19.63;14.07;;;;;;;11.23;59.17;96108.66;5066840;28;20036;-73
2022/11/13 11:15:00;;;;;;;18.25;12.57;;;;;;;11.30;58.99;96112.53;5066372;28;20047;-73
2022/11/13 11:17:31;;;;;;;16.23;11.45;;;;;;;11.38;58.49;96115.47;5064453;28;20418;-73
2022/11/13 11:20:19;;;;;;;18.55;13.57;;;;;;;11.47;58.14;96108.84;5061649;28;20044;-73
2022/11/13 11:22:44;;;;;;;17.30;12.98;;;;;;;11.48;58.47;96106.16;5062341;28;20086;-73
2022/11/13 11:26:05;;;;;;;20.27;15.65;;;;;;;11.49;58.42;96100.00;5065435;28;20068;-73
2022/11/13 11:28:38;;;;;;;17.47;12.13;;;;;;;11.51;57.71;96098.13;5059561;28;20410;-73
2022/11/13 11:31:16;;;;;;;17.35;13.35;;;;;;;11.42;58.30;96103.91;5047647;28;20282;-73
2022/11/13 11:33:52;;;;;;;17.10;12.60;;;;;;;11.36;58.35;96101.72;5058458;28;20135;-73
2022/11/13 11:36:29;;;;;;;15.70;11.70;;;;;;;11.38;58.07;96099.88;5063235;28;20028;-73